Time;durP1;ratioP1;P1;durP2;ratioP2;P2;SDS_P1;SDS_P2;PMS_P1;PMS_P2;Temp;Humidity;BMP_temperature;BMP_pressure;BME280_temperature;BME280_humidity;BME280_pressure;Samples;Min_cycle;Max_cycle;Signal;HPM_P1;HPM_P2
2021/04/18 15:35:33;;;;;;;;;;;;;;;;;;143769;75;46234;-87
2021/04/18 15:43:17;;;;;;;30.20;13.27;;;;;;;;;;144081;966;35011;-73
2021/04/18 15:45:44;;;;;;;33.03;13.45;;;;;;;;;;143712;75;71664;-73
2021/04/18 15:48:13;;;;;;;27.50;13.62;;;;;;;;;;148175;65;786581;-75
2021/04/18 15:52:58;;;;;;;29.37;14.10;;;;;;;15.97;66.11;100847.09;143485;639;67223;-74
2021/04/18 15:55:26;;;;;;;29.23;14.48;;;;;;;15.68;66.95;100830.81;144819;65;61268;-74
2021/04/18 15:57:54;;;;;;;25.98;12.18;;;;;;;15.95;66.16;100827.78;143748;700;46012;-69
2021/04/18 16:00:25;;;;;;;28.55;14.15;;;;;;;16.21;65.62;100830.00;143749;638;46010;-73
2021/04/18 16:02:52;;;;;;;30.30;12.73;;;;;;;16.26;65.25;100823.63;143685;69;62337;-72
2021/04/18 16:05:19;;;;;;;24.70;12.27;;;;;;;16.28;65.39;100827.03;143751;675;47010;-74
2021/04/18 16:07:47;;;;;;;28.77;13.60;;;;;;;16.31;65.22;100825.09;143755;705;45907;-72
2021/04/18 16:10:17;;;;;;;29.73;13.98;;;;;;;16.36;65.02;100825.72;143750;644;46018;-73
2021/04/18 16:12:45;;;;;;;34.63;14.48;;;;;;;16.38;64.89;100826.50;143748;643;46020;-73
2021/04/18 16:15:14;;;;;;;31.45;14.63;;;;;;;16.41;64.67;100814.88;143753;661;46027;-73
2021/04/18 16:17:42;;;;;;;34.55;14.35;;;;;;;16.42;64.70;100812.16;143751;705;46906;-72
2021/04/18 16:20:11;;;;;;;31.67;16.62;;;;;;;16.47;64.36;100826.97;143750;678;46008;-73
2021/04/18 16:22:42;;;;;;;31.73;15.02;;;;;;;16.49;64.00;100822.47;143748;601;46020;-73
2021/04/18 16:25:09;;;;;;;34.75;17.33;;;;;;;16.52;64.06;100833.75;143752;662;46008;-73
2021/04/18 16:27:37;;;;;;;40.47;18.98;;;;;;;16.55;64.27;100832.72;143750;646;46907;-73
2021/04/18 16:30:08;;;;;;;32.65;15.25;;;;;;;16.58;63.66;100840.56;143749;587;46008;-73
2021/04/18 16:32:36;;;;;;;29.48;14.68;;;;;;;16.60;63.10;100838.66;143749;624;46020;-73
2021/04/18 16:35:07;;;;;;;31.25;14.32;;;;;;;16.61;63.37;100843.03;143753;576;46008;-73
2021/04/18 16:37:34;;;;;;;32.10;14.90;;;;;;;16.66;63.51;100843.66;143746;689;48021;-73
2021/04/18 16:40:04;;;;;;;34.17;14.07;;;;;;;16.70;63.39;100836.38;143751;608;45044;-73
2021/04/18 16:42:32;;;;;;;32.33;15.00;;;;;;;16.74;63.44;100837.94;143750;579;46021;-73
2021/04/18 16:44:59;;;;;;;29.83;14.13;;;;;;;16.79;62.86;100835.06;143751;581;46010;-73
2021/04/18 16:47:26;;;;;;;33.90;15.75;;;;;;;16.83;62.61;100839.28;143750;733;45906;-73
2021/04/18 16:49:53;;;;;;;36.72;15.70;;;;;;;16.81;63.35;100831.38;143749;620;46008;-73
2021/04/18 16:52:22;;;;;;;32.60;15.70;;;;;;;16.78;63.17;100822.75;143747;654;47008;-73
2021/04/18 16:54:49;;;;;;;36.33;15.93;;;;;;;16.72;63.17;100824.78;143755;642;47010;-73
2021/04/18 16:57:19;;;;;;;32.95;15.85;;;;;;;16.70;63.03;100831.97;143753;571;46010;-73
2021/04/18 16:59:46;;;;;;;32.15;14.60;;;;;;;16.67;62.75;100831.25;143755;597;45010;-73
2021/04/18 17:02:14;;;;;;;30.58;16.92;;;;;;;16.60;63.28;100843.97;143754;675;46008;-73
2021/04/18 17:04:41;;;;;;;33.17;16.00;;;;;;;16.54;63.38;100854.91;143756;628;46009;-73
2021/04/18 17:07:08;;;;;;;37.53;15.52;;;;;;;16.52;63.46;100841.69;143752;581;46010;-73
2021/04/18 17:09:35;;;;;;;31.00;14.57;;;;;;;16.48;63.49;100853.38;143750;569;46018;-73
2021/04/18 17:12:05;;;;;;;29.23;15.18;;;;;;;16.45;64.05;100848.25;143754;704;46019;-73
2021/04/18 17:14:32;;;;;;;31.15;15.38;;;;;;;16.39;63.82;100844.13;143754;648;45019;-73
2021/04/18 17:16:59;;;;;;;31.52;14.77;;;;;;;16.34;64.23;100854.09;143750;602;47022;-73
2021/04/18 17:19:26;;;;;;;28.23;14.48;;;;;;;16.28;64.51;100866.78;143754;584;45019;-73
2021/04/18 17:21:54;;;;;;;29.65;13.75;;;;;;;16.24;64.05;100866.09;143753;652;47008;-73
2021/04/18 17:24:21;;;;;;;30.33;13.43;;;;;;;16.17;64.64;100857.59;143758;595;46010;-73
2021/04/18 17:26:48;;;;;;;29.35;14.98;;;;;;;16.16;64.43;100862.97;143751;590;45907;-73
2021/04/18 17:29:15;;;;;;;33.67;15.52;;;;;;;16.13;64.39;100871.03;143753;649;46008;-73
2021/04/18 17:31:42;;;;;;;29.08;14.70;;;;;;;16.13;64.95;100866.63;143752;683;47008;-73
2021/04/18 17:34:09;;;;;;;31.23;14.48;;;;;;;16.11;64.60;100859.66;143755;674;46018;-73
2021/04/18 17:36:36;;;;;;;28.73;15.93;;;;;;;16.10;64.52;100852.66;143753;626;45907;-73
2021/04/18 17:39:05;;;;;;;34.38;16.62;;;;;;;16.10;64.72;100855.28;143754;669;46008;-73
2021/04/18 17:41:32;;;;;;;32.35;16.83;;;;;;;16.06;65.03;100863.41;143750;593;46022;-72
2021/04/18 17:44:02;;;;;;;30.40;16.20;;;;;;;16.03;65.15;100857.37;143753;712;46008;-73
2021/04/18 17:46:30;;;;;;;31.15;15.10;;;;;;;16.00;65.33;100855.75;143748;566;46020;-73
2021/04/18 17:48:57;;;;;;;38.17;17.15;;;;;;;15.98;65.29;100862.91;143752;628;46018;-71
2021/04/18 17:51:25;;;;;;;31.60;15.35;;;;;;;15.96;65.30;100864.75;143751;607;47008;-71
2021/04/18 17:53:52;;;;;;;29.20;16.30;;;;;;;15.95;65.31;100855.13;143752;573;46018;-71
2021/04/18 17:56:19;;;;;;;37.30;17.20;;;;;;;15.93;65.41;100849.03;143751;638;46018;-72
2021/04/18 17:58:46;;;;;;;34.03;16.77;;;;;;;15.90;65.35;100847.37;143749;622;46018;-71
2021/04/18 18:01:14;;;;;;;36.75;17.02;;;;;;;15.90;65.28;100857.13;143754;742;46018;-72
2021/04/18 18:03:41;;;;;;;34.00;17.98;;;;;;;15.89;65.08;100858.91;143755;577;46008;-71
2021/04/18 18:06:08;;;;;;;40.50;20.75;;;;;;;15.90;64.87;100878.31;143750;644;47907;-71
2021/04/18 18:08:35;;;;;;;39.05;18.50;;;;;;;15.91;64.73;100890.63;143683;647;60822;-71
2021/04/18 18:11:04;;;;;;;36.45;18.23;;;;;;;15.92;64.40;100896.78;143753;583;45907;-71
2021/04/18 18:13:36;;;;;;;33.10;18.65;;;;;;;15.92;64.54;100905.56;143755;716;47013;-71
2021/04/18 18:16:03;;;;;;;34.45;18.10;;;;;;;15.93;64.30;100909.94;143752;620;46012;-72
2021/04/18 18:18:31;;;;;;;38.53;19.40;;;;;;;15.91;64.33;100917.09;143753;562;46010;-71
2021/04/18 18:20:58;;;;;;;30.45;15.63;;;;;;;15.88;65.23;100919.88;143752;707;46020;-71
2021/04/18 18:23:26;;;;;;;32.83;14.95;;;;;;;15.81;65.19;100923.75;143756;589;47012;-71
2021/04/18 18:25:54;;;;;;;36.55;15.77;;;;;;;15.77;65.49;100922.16;143748;602;47020;-71
2021/04/18 18:28:22;;;;;;;35.63;15.73;;;;;;;15.72;65.17;100923.22;143752;684;46010;-71
2021/04/18 18:30:49;;;;;;;43.63;18.98;;;;;;;15.67;64.81;100929.66;143749;566;46020;-71
2021/04/18 18:33:16;;;;;;;36.28;17.95;;;;;;;15.64;65.13;100927.16;143754;674;47012;-71
2021/04/18 18:35:44;;;;;;;39.28;18.85;;;;;;;15.59;64.88;100942.37;143751;597;46013;-71
2021/04/18 18:38:11;;;;;;;40.58;19.92;;;;;;;15.56;64.76;100944.22;143753;593;46010;-71
2021/04/18 18:40:39;;;;;;;44.38;19.85;;;;;;;15.53;64.85;100943.53;143754;649;45020;-71
2021/04/18 18:43:06;;;;;;;33.75;16.92;;;;;;;15.51;64.91;100950.66;143754;708;47012;-71
2021/04/18 18:45:34;;;;;;;32.33;17.65;;;;;;;15.50;65.34;100948.94;143749;664;47020;-71
2021/04/18 18:48:06;;;;;;;35.53;17.95;;;;;;;15.48;65.29;100956.09;143752;573;46010;-71
2021/04/18 18:50:34;;;;;;;36.35;20.12;;;;;;;15.46;65.02;100947.34;143752;697;46012;-71
2021/04/18 18:55:46;;;;;;;46.35;22.73;;;;;;;15.41;64.48;100955.50;143747;695;46018;-71
2021/04/18 18:58:13;;;;;;;41.80;20.10;;;;;;;15.37;64.67;100954.78;143752;588;47010;-71
2021/04/18 19:00:45;;;;;;;38.15;19.30;;;;;;;15.34;64.40;100954.06;143753;579;46020;-71
2021/04/18 19:03:16;;;;;;;57.83;29.20;;;;;;;15.30;64.63;100958.63;143750;613;47012;-71
2021/04/18 19:05:44;;;;;;;57.90;32.15;;;;;;;15.30;64.55;100969.19;143753;572;46018;-71
2021/04/18 19:08:11;;;;;;;60.03;30.45;;;;;;;15.30;64.94;100968.34;143753;704;46010;-71
2021/04/18 19:10:39;;;;;;;47.92;23.90;;;;;;;15.27;64.48;100968.47;143754;694;46010;-72
2021/04/18 19:13:06;;;;;;;46.13;24.63;;;;;;;15.20;65.13;100968.75;143754;687;47013;-71
2021/04/18 19:15:33;;;;;;;47.00;24.65;;;;;;;15.16;64.98;100976.84;143750;563;46020;-71
2021/04/18 19:18:01;;;;;;;48.40;24.92;;;;;;;15.12;65.02;100976.16;143749;601;46018;-71
2021/04/18 19:20:29;;;;;;;55.65;24.75;;;;;;;15.10;64.85;100977.13;143750;564;46010;-71
2021/04/18 19:22:57;;;;;;;62.95;27.60;;;;;;;15.09;64.81;100972.78;143753;713;47012;-71
2021/04/18 19:25:24;;;;;;;47.03;21.65;;;;;;;15.07;64.53;100964.91;143753;565;46012;-71
2021/04/18 19:27:52;;;;;;;39.72;19.08;;;;;;;15.05;64.94;100975.56;143753;673;46011;-71
2021/04/18 19:30:22;;;;;;;40.90;20.05;;;;;;;15.04;64.96;100972.97;143756;569;46012;-71
2021/04/18 19:32:50;;;;;;;45.65;21.73;;;;;;;15.02;64.64;100978.34;143753;571;46016;-71
2021/04/18 19:35:19;;;;;;;38.30;19.55;;;;;;;15.00;64.78;100980.16;143751;570;46013;-71
2021/04/18 19:37:46;;;;;;;36.78;20.55;;;;;;;14.97;65.22;100988.25;143750;642;46010;-71
2021/04/18 19:40:14;;;;;;;38.83;20.65;;;;;;;14.92;64.99;100986.72;143753;654;46020;-71
2021/04/18 19:42:43;;;;;;;39.72;19.83;;;;;;;14.90;64.70;100994.72;143753;571;46013;-71
2021/04/18 19:45:14;;;;;;;36.72;18.77;;;;;;;14.91;64.78;100993.75;143748;695;46018;-71
2021/04/18 19:47:41;;;;;;;40.83;20.23;;;;;;;14.87;64.78;100985.13;143751;648;46012;-71
2021/04/18 19:50:09;;;;;;;39.03;18.67;;;;;;;14.84;64.91;100972.03;143752;573;46030;-71
2021/04/18 19:52:36;;;;;;;37.22;17.15;;;;;;;14.85;64.66;100971.09;143755;576;46012;-71
2021/04/18 19:55:05;;;;;;;37.13;17.08;;;;;;;14.82;64.13;100984.44;143750;660;46012;-71
2021/04/18 19:57:33;;;;;;;33.33;17.50;;;;;;;14.82;63.99;100989.72;143752;628;47010;-71
2021/04/18 20:00:00;;;;;;;35.88;18.27;;;;;;;14.77;63.88;100988.22;143752;651;46010;-71
2021/04/18 20:02:28;;;;;;;38.95;16.90;;;;;;;14.69;64.41;100986.75;143753;631;47012;-71
2021/04/18 20:04:56;;;;;;;34.45;16.27;;;;;;;14.65;64.33;100977.22;143748;596;46020;-71
2021/04/18 20:07:23;;;;;;;32.15;16.30;;;;;;;14.62;64.00;100973.81;143750;569;47012;-71
2021/04/18 20:09:51;;;;;;;30.27;15.88;;;;;;;14.58;63.64;100970.41;143745;569;46010;-71
2021/04/18 20:12:18;;;;;;;30.20;15.73;;;;;;;14.58;63.94;100969.56;143750;646;46019;-71
2021/04/18 20:14:45;;;;;;;29.45;15.80;;;;;;;14.57;63.80;100968.72;143750;582;46022;-72
2021/04/18 20:17:12;;;;;;;32.78;16.95;;;;;;;14.58;63.65;100974.84;143752;575;46010;-71
2021/04/18 20:19:39;;;;;;;39.42;19.23;;;;;;;14.55;64.29;100974.03;143753;609;46013;-71
2021/04/18 20:22:06;;;;;;;36.90;19.50;;;;;;;14.51;64.29;100974.22;143753;594;47012;-72
2021/04/18 20:24:34;;;;;;;42.03;20.88;;;;;;;14.53;64.70;100972.41;143749;589;46909;-71
2021/04/18 20:27:01;;;;;;;45.85;19.95;;;;;;;14.51;64.06;100976.88;143750;569;46019;-71
2021/04/18 20:29:28;;;;;;;42.65;21.48;;;;;;;14.46;64.63;100976.19;143750;595;46020;-70
2021/04/18 20:31:55;;;;;;;47.42;23.95;;;;;;;14.39;65.36;100965.87;143754;587;46012;-71
2021/04/18 20:34:22;;;;;;;39.88;19.37;;;;;;;14.36;65.19;100973.91;143752;575;46018;-71
2021/04/18 20:36:49;;;;;;;34.20;16.05;;;;;;;14.33;64.75;100984.59;143751;652;45045;-70
2021/04/18 20:39:17;;;;;;;34.35;17.33;;;;;;;14.28;65.23;100973.34;143751;574;46020;-71
2021/04/18 20:41:44;;;;;;;38.72;17.67;;;;;;;14.24;65.19;100974.41;143753;663;46019;-71
2021/04/18 20:44:11;;;;;;;41.80;19.80;;;;;;;14.18;64.61;100967.56;143748;563;46012;-71
2021/04/18 20:46:39;;;;;;;32.92;15.65;;;;;;;14.15;65.09;100970.34;143753;697;46010;-71
2021/04/18 20:49:06;;;;;;;30.00;14.65;;;;;;;14.16;64.30;100979.13;143752;607;46010;-72
2021/04/18 20:51:33;;;;;;;31.83;14.60;;;;;;;14.15;64.50;100967.72;143753;588;47012;-72
2021/04/18 20:54:00;;;;;;;32.75;16.12;;;;;;;14.13;64.59;100968.69;143749;582;46018;-71
2021/04/18 20:56:27;;;;;;;30.15;15.00;;;;;;;14.13;63.88;100977.44;143750;658;46018;-71
2021/04/18 20:58:54;;;;;;;29.80;15.02;;;;;;;14.11;63.98;100962.63;143747;583;47010;-71
2021/04/18 21:01:21;;;;;;;29.42;14.60;;;;;;;14.07;63.91;100963.66;143752;598;47010;-71
2021/04/18 21:03:52;;;;;;;34.25;15.25;;;;;;;14.01;64.14;100960.31;143749;591;47020;-71
2021/04/18 21:06:26;;;;;;;29.40;16.40;;;;;;;13.96;64.03;100962.28;143749;566;48010;-72
2021/04/18 21:08:53;;;;;;;35.03;16.70;;;;;;;13.91;64.53;100948.38;143754;587;46020;-71
2021/04/18 21:11:20;;;;;;;35.85;19.62;;;;;;;13.90;64.38;100951.97;143753;564;47012;-72
2021/04/18 21:13:47;;;;;;;40.30;16.85;;;;;;;13.90;64.50;100962.53;143747;635;48021;-71
2021/04/18 21:16:15;;;;;;;35.42;19.55;;;;;;;13.89;64.81;100958.16;143752;669;46018;-70
2021/04/18 21:18:42;;;;;;;33.75;16.95;;;;;;;13.88;64.36;100954.63;143754;570;46012;-70
2021/04/18 21:21:09;;;;;;;45.42;19.75;;;;;;;13.84;64.73;100942.47;143753;646;46016;-71
2021/04/18 21:23:38;;;;;;;36.05;16.40;;;;;;;13.85;64.40;100946.00;143753;583;46012;-71
2021/04/18 21:26:05;;;;;;;37.75;15.95;;;;;;;13.84;64.36;100937.19;143755;569;46010;-69
2021/04/18 21:28:33;;;;;;;30.88;15.52;;;;;;;13.83;64.16;100939.88;143755;657;46012;-72
2021/04/18 21:31:00;;;;;;;32.20;15.25;;;;;;;13.80;64.10;100934.75;143753;564;46018;-72
2021/04/18 21:33:27;;;;;;;34.40;16.45;;;;;;;13.77;63.85;100929.59;143751;610;48022;-69
2021/04/18 21:35:54;;;;;;;30.50;16.50;;;;;;;13.73;64.05;100930.62;143752;721;46010;-69
2021/04/18 21:38:21;;;;;;;36.75;17.80;;;;;;;13.65;64.80;100918.56;143757;712;46012;-69
2021/04/18 21:40:50;;;;;;;41.10;19.83;;;;;;;13.61;64.87;100919.59;143756;614;45019;-72
2021/04/18 21:43:18;;;;;;;31.15;16.20;;;;;;;13.59;64.62;100915.31;143748;686;46021;-73
2021/04/18 21:45:45;;;;;;;29.98;16.67;;;;;;;13.56;64.40;100905.72;143750;600;46018;-73
2021/04/18 21:48:23;;;;;;;34.85;16.83;;;;;;;13.53;64.73;100901.41;143749;679;46010;-69
2021/04/18 21:50:51;;;;;;;33.75;16.83;;;;;;;13.44;64.87;100898.28;143752;628;46021;-69
2021/04/18 21:53:19;;;;;;;40.10;17.60;;;;;;;13.35;65.03;100900.34;143749;615;47022;-70
2021/04/18 21:55:47;;;;;;;36.22;16.70;;;;;;;13.32;65.27;100891.63;143750;618;46019;-70
2021/04/18 21:58:14;;;;;;;35.30;16.90;;;;;;;13.31;64.95;100880.22;143752;641;47010;-71
2021/04/18 22:00:41;;;;;;;34.42;17.02;;;;;;;13.31;65.17;100880.22;143754;627;46010;-70
2021/04/18 22:03:08;;;;;;;39.53;17.73;;;;;;;13.32;65.60;100878.44;143749;625;46018;-70
2021/04/18 22:05:38;;;;;;;34.17;17.27;;;;;;;13.31;64.99;100874.97;143755;595;46012;-71
2021/04/18 22:08:06;;;;;;;32.53;16.55;;;;;;;13.32;65.34;100870.53;143755;660;46012;-70
2021/04/18 22:10:33;;;;;;;35.70;17.27;;;;;;;13.32;65.09;100863.47;143754;694;46020;-69
2021/04/18 22:13:00;;;;;;;36.33;16.23;;;;;;;13.34;65.13;100861.66;143751;667;46021;-69
2021/04/18 22:15:27;;;;;;;30.20;14.40;;;;;;;13.33;64.29;100862.56;143753;566;46010;-70
2021/04/18 22:17:54;;;;;;;34.72;15.63;;;;;;;13.32;64.35;100857.34;143754;623;46019;-70
2021/04/18 22:20:21;;;;;;;32.92;16.15;;;;;;;13.30;64.80;100852.12;143753;583;46012;-69
2021/04/18 22:22:48;;;;;;;36.58;16.17;;;;;;;13.29;64.94;100850.41;143751;659;47909;-68
2021/04/18 22:25:16;;;;;;;31.95;16.25;;;;;;;13.26;64.63;100849.66;143752;583;46010;-68
2021/04/18 22:27:43;;;;;;;31.55;16.35;;;;;;;13.20;65.12;100848.09;143752;627;46021;-70
2021/04/18 22:30:12;;;;;;;39.78;16.73;;;;;;;13.16;65.49;100855.28;143755;575;46018;-68
2021/04/18 22:32:39;;;;;;;38.45;17.20;;;;;;;13.11;65.28;100851.06;143749;571;47022;-70
2021/04/18 22:35:08;;;;;;;33.22;16.58;;;;;;;13.10;65.46;100857.28;143752;626;46012;-70
2021/04/18 22:37:35;;;;;;;37.13;16.77;;;;;;;13.08;65.22;100853.81;143750;588;47010;-70
2021/04/18 22:40:05;;;;;;;30.83;16.02;;;;;;;13.05;65.40;100849.50;143755;570;46017;-69
2021/04/18 22:42:32;;;;;;;32.83;16.83;;;;;;;13.05;65.20;100846.87;143748;593;47009;-69
2021/04/18 22:44:59;;;;;;;37.38;16.73;;;;;;;13.03;65.50;100854.84;143752;611;46019;-69
2021/04/18 22:47:27;;;;;;;33.70;17.05;;;;;;;13.01;65.32;100855.81;143755;606;46021;-69
2021/04/18 22:49:54;;;;;;;33.08;16.58;;;;;;;12.96;65.09;100858.62;143754;564;46010;-68
2021/04/18 22:52:21;;;;;;;38.58;17.92;;;;;;;12.91;65.64;100847.37;143749;589;47022;-67
2021/04/18 22:54:48;;;;;;;35.60;17.87;;;;;;;12.91;65.36;100846.53;143753;577;46013;-69
2021/04/18 22:57:16;;;;;;;42.10;17.52;;;;;;;12.91;65.57;100844.75;143751;564;46012;-69
2021/04/18 22:59:43;;;;;;;39.15;18.40;;;;;;;12.91;65.39;100849.16;143754;603;47012;-69
2021/04/18 23:02:10;;;;;;;41.67;17.80;;;;;;;12.90;65.59;100839.53;143751;593;46022;-67
2021/04/18 23:04:37;;;;;;;42.03;19.48;;;;;;;12.88;65.94;100842.22;143754;584;46010;-69
2021/04/18 23:07:04;;;;;;;39.95;17.25;;;;;;;12.88;65.36;100844.00;143753;569;46010;-69
2021/04/18 23:09:31;;;;;;;46.30;22.23;;;;;;;12.86;65.69;100847.56;143754;585;47012;-69
2021/04/18 23:11:59;;;;;;;50.80;22.92;;;;;;;12.87;65.84;100845.78;143752;597;47909;-67
2021/04/18 23:14:26;;;;;;;40.22;19.48;;;;;;;12.88;65.77;100844.88;143753;579;46010;-67
2021/04/18 23:16:53;;;;;;;39.78;18.67;;;;;;;12.89;65.35;100846.59;143754;617;46020;-68
2021/04/18 23:19:20;;;;;;;39.08;18.33;;;;;;;12.89;65.42;100851.88;143755;576;46010;-68
2021/04/18 23:21:47;;;;;;;36.83;17.20;;;;;;;12.86;65.71;100842.28;143752;580;46020;-69
2021/04/18 23:24:14;;;;;;;38.25;18.40;;;;;;;12.84;65.65;100848.53;143754;608;46012;-67
2021/04/18 23:26:41;;;;;;;41.60;18.52;;;;;;;12.80;66.04;100853.03;143750;614;45909;-68
2021/04/18 23:29:08;;;;;;;43.08;20.35;;;;;;;12.75;66.00;100846.19;143756;605;46026;-68
2021/04/18 23:31:35;;;;;;;45.53;19.98;;;;;;;12.72;66.20;100843.69;143752;619;46020;-68
2021/04/18 23:34:03;;;;;;;36.50;18.95;;;;;;;12.66;66.07;100839.50;143751;571;46018;-67
2021/04/18 23:36:30;;;;;;;43.13;18.58;;;;;;;12.65;66.64;100846.50;143755;666;46020;-68
2021/04/18 23:38:57;;;;;;;42.13;19.40;;;;;;;12.65;66.24;100843.03;143756;569;47012;-70
2021/04/18 23:41:24;;;;;;;42.08;19.00;;;;;;;12.66;66.48;100845.59;143753;586;46023;-68
2021/04/18 23:43:51;;;;;;;41.30;19.10;;;;;;;12.68;66.65;100843.78;143754;586;46010;-69
2021/04/18 23:46:18;;;;;;;41.75;19.33;;;;;;;12.70;66.49;100846.38;143758;698;46008;-71
2021/04/18 23:48:45;;;;;;;41.17;18.83;;;;;;;12.73;66.71;100850.69;143754;599;46016;-69
2021/04/18 23:51:13;;;;;;;41.15;18.90;;;;;;;12.75;66.41;100849.69;143752;566;46909;-68
2021/04/18 23:53:40;;;;;;;38.17;19.20;;;;;;;12.76;66.37;100848.78;143755;616;46010;-69
2021/04/18 23:56:07;;;;;;;37.42;18.42;;;;;;;12.75;66.52;100846.19;143755;657;46010;-68
2021/04/18 23:58:36;;;;;;;33.47;17.65;;;;;;;12.72;66.38;100846.31;143756;589;47012;-68
